createdAt,value
2022-10-28T00:02:30.309Z,101871.38
2022-10-28T00:07:32.428Z,101873.78
2022-10-28T00:12:38.347Z,101867.44
2022-10-28T00:17:40.432Z,101863.28
2022-10-28T00:22:42.953Z,101862.19
2022-10-28T00:27:45.009Z,101863.28
2022-10-28T00:32:47.106Z,101873.50
2022-10-28T00:37:53.192Z,101872.91
2022-10-28T00:42:55.651Z,101874.53
2022-10-28T00:48:02.331Z,101866.75
2022-10-28T00:53:14.318Z,101863.63
2022-10-28T00:58:17.648Z,101865.28
2022-10-28T01:03:19.765Z,101865.00
2022-10-28T01:08:21.915Z,101859.50
2022-10-28T01:13:38.791Z,101857.00
2022-10-28T01:18:59.075Z,101861.69
2022-10-28T01:24:42.592Z,101861.94
2022-10-28T01:29:53.748Z,101845.81
2022-10-28T01:35:11.670Z,101855.19
2022-10-28T01:40:37.273Z,101854.50
2022-10-28T01:45:57.196Z,101854.19
2022-10-28T01:57:04.998Z,101845.38
2022-10-28T02:02:07.062Z,101846.47
2022-10-28T02:07:09.534Z,101837.34
2022-10-28T02:12:20.307Z,101841.97
2022-10-28T02:17:22.305Z,101836.97
2022-10-28T02:22:24.324Z,101840.63
2022-10-28T02:27:46.486Z,101841.59
2022-10-28T02:32:57.060Z,101842.44
2022-10-28T02:38:03.680Z,101840.69
2022-10-28T02:43:09.914Z,101844.41
2022-10-28T02:48:26.339Z,101841.13
2022-10-28T02:53:37.224Z,101842.44
2022-10-28T02:58:40.707Z,101841.00
2022-10-28T03:03:43.011Z,101836.03
2022-10-28T03:08:45.028Z,101831.09
2022-10-28T03:13:47.156Z,101834.41
2022-10-28T03:18:49.447Z,101839.50
2022-10-28T03:23:51.534Z,101843.91
2022-10-28T03:28:53.613Z,101832.88
2022-10-28T03:33:55.740Z,101844.16
2022-10-28T03:38:57.797Z,101832.22
2022-10-28T03:43:59.990Z,101831.97
2022-10-28T03:49:02.043Z,101830.37
2022-10-28T03:54:04.207Z,101831.22
2022-10-28T03:59:08.649Z,101834.94
2022-10-28T04:04:10.701Z,101828.47
2022-10-28T04:09:12.779Z,101833.75
2022-10-28T04:14:15.035Z,101836.59
2022-10-28T04:19:17.171Z,101831.53
2022-10-28T04:24:19.168Z,101822.72
2022-10-28T04:29:21.212Z,101817.84
2022-10-28T04:34:23.347Z,101808.81
2022-10-28T04:39:25.428Z,101799.41
2022-10-28T04:44:27.465Z,101795.31
2022-10-28T04:49:29.785Z,101804.75
2022-10-28T04:54:31.861Z,101800.59
2022-10-28T04:59:35.109Z,101793.66
2022-10-28T05:04:52.885Z,101790.53
2022-10-28T05:09:55.033Z,101795.94
2022-10-28T05:14:57.120Z,101799.31
2022-10-28T05:19:59.289Z,101803.72
2022-10-28T05:25:01.358Z,101793.19
2022-10-28T05:30:04.035Z,101804.81
2022-10-28T05:35:06.673Z,101802.31
2022-10-28T05:40:09.518Z,101804.75
2022-10-28T05:45:12.607Z,101816.37
2022-10-28T05:50:17.164Z,101820.44
2022-10-28T05:55:20.461Z,101816.69
2022-10-28T06:00:24.784Z,101827.75
2022-10-28T06:05:26.980Z,101837.84
2022-10-28T06:10:29.025Z,101841.53
2022-10-28T06:15:30.042Z,101839.56
2022-10-28T06:20:32.162Z,101845.69
2022-10-28T06:25:34.213Z,101844.00
2022-10-28T06:30:36.373Z,101841.66
2022-10-28T06:35:38.480Z,101849.75
2022-10-28T06:40:40.529Z,101847.31
2022-10-28T06:45:45.226Z,101849.81
2022-10-28T06:50:49.509Z,101855.59
2022-10-28T06:55:55.545Z,101856.50
2022-10-28T07:01:02.521Z,101853.69
2022-10-28T07:06:04.921Z,101866.97
2022-10-28T07:11:07.267Z,101870.03
2022-10-28T07:16:09.478Z,101872.53
2022-10-28T07:21:11.594Z,101867.28
2022-10-28T07:26:13.745Z,101861.25
2022-10-28T07:31:16.042Z,101863.38
2022-10-28T07:36:18.267Z,101864.81
2022-10-28T07:41:21.875Z,101863.38
2022-10-28T07:46:23.977Z,101869.31
2022-10-28T07:51:26.217Z,101876.63
2022-10-28T07:56:28.261Z,101874.19
2022-10-28T08:01:30.508Z,101869.22
2022-10-28T08:06:35.473Z,101873.69
2022-10-28T08:11:37.488Z,101875.00
2022-10-28T08:16:39.540Z,101866.06
2022-10-28T08:21:41.633Z,101861.81
2022-10-28T08:26:44.649Z,101861.03
2022-10-28T08:31:46.750Z,101853.34
2022-10-28T08:36:48.877Z,101847.88
2022-10-28T08:42:02.966Z,101869.62
2022-10-28T08:47:35.637Z,101857.16
2022-10-28T08:52:46.283Z,101876.81
2022-10-28T08:57:53.669Z,101872.91
2022-10-28T09:03:01.485Z,101868.81
2022-10-28T09:08:04.459Z,101876.69
2022-10-28T09:13:12.413Z,101889.88
2022-10-28T09:18:20.498Z,101882.38
2022-10-28T09:23:44.253Z,101873.28
2022-10-28T09:29:18.217Z,101878.09
2022-10-28T09:34:48.775Z,101876.84
2022-10-28T09:39:55.343Z,101875.94
2022-10-28T09:45:12.740Z,101880.66
2022-10-28T09:50:19.244Z,101867.34
2022-10-28T09:55:22.938Z,101880.87
2022-10-28T10:00:25.189Z,101884.13
2022-10-28T10:05:28.506Z,101873.63
2022-10-28T10:10:39.884Z,101874.22
2022-10-28T10:15:51.104Z,101877.41
2022-10-28T10:21:00.723Z,101880.66
2022-10-28T10:26:12.490Z,101881.00
2022-10-28T10:31:23.902Z,101869.22
2022-10-28T10:36:29.127Z,101876.81
2022-10-28T10:41:38.629Z,101877.28
2022-10-28T10:46:40.731Z,101870.94
2022-10-28T10:52:01.346Z,101865.66
2022-10-28T10:57:17.286Z,101857.34
2022-10-28T11:02:37.074Z,101867.75
2022-10-28T11:07:47.799Z,101860.75
2022-10-28T11:12:58.568Z,101851.72
2022-10-28T11:18:00.660Z,101857.66
2022-10-28T11:23:17.413Z,101855.78
2022-10-28T11:28:53.676Z,101854.37
2022-10-28T11:34:20.640Z,101852.66
2022-10-28T11:39:59.509Z,101845.44
2022-10-28T11:45:23.918Z,101838.53
2022-10-28T11:51:03.793Z,101839.19
2022-10-28T11:56:27.740Z,101844.53
2022-10-28T12:01:40.930Z,101822.22
2022-10-28T12:07:14.904Z,101821.97
2022-10-28T12:12:33.111Z,101823.91
2022-10-28T12:17:53.687Z,101805.25
2022-10-28T12:23:00.232Z,101800.69
2022-10-28T12:28:07.522Z,101799.66
2022-10-28T12:33:20.359Z,101800.69
2022-10-28T12:38:25.138Z,101788.84
2022-10-28T12:43:37.998Z,101800.97
2022-10-28T12:54:15.479Z,101794.84
2022-10-28T12:59:33.431Z,101792.19
2022-10-28T13:04:37.832Z,101782.41
2022-10-28T13:09:50.973Z,101776.31
2022-10-28T13:15:15.125Z,101767.25
2022-10-28T13:20:45.822Z,101768.97
2022-10-28T13:26:15.071Z,101766.13
2022-10-28T13:31:18.576Z,101770.25
2022-10-28T13:36:27.223Z,101781.41
2022-10-28T13:41:31.079Z,101774.16
2022-10-28T13:47:02.507Z,101776.53
2022-10-28T13:52:07.245Z,101778.25
2022-10-28T13:57:30.928Z,101763.97
2022-10-28T14:02:39.754Z,101768.50
2022-10-28T14:07:58.639Z,101774.91
2022-10-28T14:13:04.560Z,101781.75
2022-10-28T14:18:42.091Z,101777.47
2022-10-28T14:23:45.176Z,101791.84
2022-10-28T14:28:52.082Z,101778.84
2022-10-28T14:33:54.066Z,101775.75
2022-10-28T14:39:15.306Z,101771.94
2022-10-28T14:44:23.738Z,101765.91
2022-10-28T14:49:36.291Z,101775.75
2022-10-28T14:54:51.465Z,101775.44
2022-10-28T14:59:55.398Z,101770.50
2022-10-28T15:05:15.663Z,101770.91
2022-10-28T15:10:29.749Z,101759.03
2022-10-28T15:15:34.961Z,101754.84
2022-10-28T15:20:36.996Z,101759.59
2022-10-28T15:25:39.347Z,101744.44
2022-10-28T15:30:46.397Z,101740.84
2022-10-28T15:35:49.251Z,101726.88
2022-10-28T15:40:51.986Z,101734.63
2022-10-28T15:45:56.260Z,101735.72
2022-10-28T15:51:19.526Z,101738.06
2022-10-28T15:56:24.375Z,101724.59
2022-10-28T16:01:38.510Z,101739.28
2022-10-28T16:06:40.672Z,101740.16
2022-10-28T16:11:46.307Z,101745.37
2022-10-28T16:16:48.427Z,101736.19
2022-10-28T16:21:50.464Z,101733.38
2022-10-28T16:26:52.557Z,101733.47
2022-10-28T16:31:54.636Z,101731.00
2022-10-28T16:36:56.677Z,101740.12
2022-10-28T16:41:58.934Z,101730.34
2022-10-28T16:47:00.953Z,101742.34
2022-10-28T16:52:03.111Z,101738.72
2022-10-28T16:57:05.155Z,101748.16
2022-10-28T17:02:33.990Z,101743.19
2022-10-28T17:07:37.292Z,101751.69
2022-10-28T17:12:39.660Z,101749.75
2022-10-28T17:17:44.898Z,101746.56
2022-10-28T17:22:47.604Z,101750.88
2022-10-28T17:27:49.669Z,101744.53
2022-10-28T17:32:53.466Z,101747.12
2022-10-28T17:37:56.085Z,101751.72
2022-10-28T17:42:59.103Z,101748.72
2022-10-28T17:48:01.164Z,101751.34
2022-10-28T17:53:03.236Z,101748.16
2022-10-28T17:58:05.315Z,101749.28
2022-10-28T18:03:09.666Z,101759.28
2022-10-28T18:08:11.717Z,101752.22
2022-10-28T18:13:13.766Z,101744.91
2022-10-28T18:18:15.894Z,101734.66
2022-10-28T18:23:17.935Z,101737.06
2022-10-28T18:28:22.906Z,101742.06
2022-10-28T18:33:24.925Z,101734.84
2022-10-28T18:38:27.235Z,101736.19
2022-10-28T18:43:29.666Z,101722.94
2022-10-28T18:48:32.104Z,101726.53
2022-10-28T18:53:39.226Z,101725.28
2022-10-28T18:58:42.315Z,101703.00
2022-10-28T19:03:44.760Z,101716.69
2022-10-28T19:08:52.115Z,101723.38
2022-10-28T19:13:54.289Z,101722.78
2022-10-28T19:18:57.891Z,101709.75
2022-10-28T19:24:00.344Z,101712.22
2022-10-28T19:29:03.899Z,101707.50
2022-10-28T19:34:06.155Z,101720.47
2022-10-28T19:39:08.518Z,101726.31
2022-10-28T19:44:10.651Z,101721.75
2022-10-28T19:49:12.692Z,101729.38
2022-10-28T19:54:15.874Z,101736.41
2022-10-28T19:59:17.903Z,101738.63
2022-10-28T20:04:21.544Z,101733.38
2022-10-28T20:09:28.670Z,101723.34
2022-10-28T20:14:31.810Z,101746.00
2022-10-28T20:19:34.102Z,101754.28
2022-10-28T20:24:36.123Z,101741.28
2022-10-28T20:29:38.178Z,101744.00
2022-10-28T20:34:40.230Z,101751.84
2022-10-28T20:39:42.268Z,101746.38
2022-10-28T20:44:44.275Z,101743.84
2022-10-28T20:49:46.307Z,101733.09
2022-10-28T20:54:48.399Z,101743.84
2022-10-28T20:59:51.922Z,101747.44
2022-10-28T21:04:54.037Z,101740.84
2022-10-28T21:10:02.301Z,101738.66
2022-10-28T21:15:08.306Z,101736.94
2022-10-28T21:20:11.640Z,101735.41
2022-10-28T21:25:14.103Z,101742.06
2022-10-28T21:30:16.459Z,101736.53
2022-10-28T21:35:18.974Z,101721.59
2022-10-28T21:40:20.986Z,101728.78
2022-10-28T21:45:24.291Z,101735.41
2022-10-28T21:50:26.391Z,101732.19
2022-10-28T21:55:45.675Z,101723.06
2022-10-28T22:00:48.695Z,101729.13
2022-10-28T22:05:51.059Z,101725.47
2022-10-28T22:11:14.707Z,101717.69
2022-10-28T22:16:33.780Z,101715.78
2022-10-28T22:21:50.037Z,101701.09
2022-10-28T22:26:52.978Z,101709.16
2022-10-28T22:31:55.104Z,101687.50
2022-10-28T22:36:58.411Z,101699.41
2022-10-28T22:42:00.601Z,101701.19
2022-10-28T22:47:03.298Z,101698.69
2022-10-28T22:52:06.997Z,101683.97
2022-10-28T22:57:09.098Z,101690.66
2022-10-28T23:02:11.388Z,101672.34
2022-10-28T23:07:15.064Z,101693.19
2022-10-28T23:12:17.329Z,101678.78
2022-10-28T23:17:19.536Z,101679.62
2022-10-28T23:22:21.714Z,101677.41
2022-10-28T23:27:24.090Z,101665.16
2022-10-28T23:32:26.772Z,101665.44
2022-10-28T23:37:28.903Z,101659.59
2022-10-28T23:42:31.333Z,101674.91
2022-10-28T23:47:33.481Z,101669.09
2022-10-28T23:52:35.564Z,101678.78
2022-10-28T23:57:37.688Z,101683.44
